Time;durP1;ratioP1;P1;durP2;ratioP2;P2;SDS_P1;SDS_P2;PMS_P1;PMS_P2;Temp;Humidity;BMP_temperature;BMP_pressure;BME280_temperature;BME280_humidity;BME280_pressure;Samples;Min_cycle;Max_cycle;Signal;HPM_P1;HPM_P2
2022/08/15 00:01:24;;;;;;;25.13;20.00;;;;;;;24.88;54.18;100208.34;5045359;28;20104;-63
2022/08/15 00:03:53;;;;;;;24.27;20.45;;;;;;;24.83;54.32;100198.75;5046690;28;20037;-63
2022/08/15 00:06:23;;;;;;;27.35;20.30;;;;;;;24.80;54.51;100201.56;5028281;28;20025;-62
2022/08/15 00:08:52;;;;;;;25.08;20.30;;;;;;;24.75;54.82;100211.56;5045992;28;20028;-64
2022/08/15 00:11:23;;;;;;;27.23;21.25;;;;;;;24.70;55.06;100210.91;5043738;28;20077;-64
2022/08/15 00:13:58;;;;;;;25.55;20.92;;;;;;;24.63;55.45;100199.66;5050367;28;20537;-63
2022/08/15 00:16:24;;;;;;;24.98;19.75;;;;;;;24.62;55.79;100197.06;5048593;28;20365;-63
2022/08/15 00:18:50;;;;;;;27.77;19.70;;;;;;;24.62;55.56;100197.06;5050156;28;20506;-63
2022/08/15 00:21:20;;;;;;;26.15;21.75;;;;;;;24.61;55.20;100195.34;5050230;28;20167;-64
2022/08/15 00:23:46;;;;;;;27.00;21.88;;;;;;;24.58;55.42;100208.78;5046430;28;20794;-63
2022/08/15 00:26:13;;;;;;;28.83;23.05;;;;;;;24.52;55.48;100214.34;5044236;28;20040;-64
2022/08/15 00:28:39;;;;;;;28.48;22.30;;;;;;;24.52;55.59;100215.25;5031254;28;20276;-64
2022/08/15 00:31:05;;;;;;;28.48;23.75;;;;;;;24.47;55.23;100212.75;5047834;28;20060;-64
2022/08/15 00:33:32;;;;;;;26.33;22.60;;;;;;;24.48;54.94;100206.50;5048574;28;20110;-63
2022/08/15 00:35:58;;;;;;;28.23;21.65;;;;;;;24.48;55.14;100200.34;5052296;28;20151;-63
2022/08/15 00:38:26;;;;;;;29.48;23.83;;;;;;;24.45;55.08;100200.47;5050120;28;20104;-63
2022/08/15 00:43:49;;;;;;;31.38;23.55;;;;;;;24.43;55.42;100203.22;5048045;28;20035;-64
2022/08/15 00:46:16;;;;;;;31.08;23.85;;;;;;;24.41;55.57;100194.41;5050322;28;20029;-63
2022/08/15 00:48:41;;;;;;;29.75;23.40;;;;;;;24.37;55.52;100189.28;5049825;28;20037;-64
2022/08/15 00:51:09;;;;;;;30.20;24.13;;;;;;;24.33;56.07;100195.69;5050755;28;20476;-64
2022/08/15 00:53:35;;;;;;;31.67;22.95;;;;;;;24.33;55.94;100204.50;5050234;28;20024;-64
2022/08/15 00:56:02;;;;;;;34.58;23.15;;;;;;;24.31;55.91;100201.06;5051661;28;20475;-64
2022/08/15 00:58:28;;;;;;;32.45;24.75;;;;;;;24.28;55.88;100201.22;5047189;28;20091;-63
2022/08/15 01:00:54;;;;;;;34.35;26.42;;;;;;;24.25;56.17;100204.00;5048218;28;20555;-64
2022/08/15 01:03:27;;;;;;;36.25;26.65;;;;;;;24.19;55.80;100207.81;5048574;28;20510;-64
2022/08/15 01:05:56;;;;;;;33.72;25.85;;;;;;;24.15;56.02;100208.88;5043182;28;20036;-63
2022/08/15 01:08:26;;;;;;;35.08;25.40;;;;;;;24.16;55.34;100201.72;5048795;28;20484;-64
2022/08/15 01:10:52;;;;;;;31.80;24.80;;;;;;;24.13;53.75;100208.06;5040985;28;20021;-63
2022/08/15 01:13:17;;;;;;;31.00;24.73;;;;;;;24.07;53.84;100201.22;5045548;28;20028;-64
2022/08/15 01:15:42;;;;;;;27.33;22.88;;;;;;;24.09;53.14;100201.16;5049465;28;20029;-64
2022/08/15 01:18:08;;;;;;;31.02;23.30;;;;;;;24.07;53.47;100200.34;5048280;28;20446;-63
2022/08/15 01:20:36;;;;;;;31.05;23.20;;;;;;;24.02;53.75;100197.03;5036429;28;20037;-64
2022/08/15 01:23:06;;;;;;;28.23;22.35;;;;;;;24.01;52.46;100193.47;5044575;28;20029;-64
2022/08/15 01:25:44;;;;;;;28.15;22.00;;;;;;;24.01;52.34;100200.59;5036121;28;20056;-62
2022/08/15 01:28:15;;;;;;;24.95;20.52;;;;;;;23.99;52.02;100191.84;5047464;28;20078;-64
2022/08/15 01:30:47;;;;;;;23.92;20.20;;;;;;;23.99;51.85;100191.84;5047353;28;20188;-63
2022/08/15 01:33:13;;;;;;;23.02;18.50;;;;;;;24.01;50.99;100201.47;5047728;28;20547;-63
2022/08/15 01:35:39;;;;;;;24.15;18.67;;;;;;;24.00;50.61;100202.41;5039922;28;20107;-63
2022/08/15 01:38:20;;;;;;;22.27;17.20;;;;;;;23.99;50.63;100198.00;5048055;28;20021;-64
2022/08/15 01:40:58;;;;;;;23.15;18.00;;;;;;;23.93;49.81;100192.97;5047089;28;20160;-63
2022/08/15 01:43:26;;;;;;;21.58;16.17;;;;;;;23.94;50.09;100189.34;5041195;28;20028;-64
2022/08/15 01:45:55;;;;;;;21.30;16.13;;;;;;;23.96;49.69;100187.50;5048905;28;20032;-64
2022/08/15 01:48:27;;;;;;;19.57;14.73;;;;;;;23.95;49.07;100193.75;5048519;28;20112;-64
2022/08/15 01:51:01;;;;;;;19.50;15.70;;;;;;;23.92;48.69;100201.84;5045949;28;20499;-65
2022/08/15 01:53:37;;;;;;;19.35;15.20;;;;;;;23.88;48.09;100203.78;5047380;28;20155;-65
2022/08/15 01:56:16;;;;;;;15.88;13.38;;;;;;;23.86;48.28;100202.09;5039847;28;20025;-64
2022/08/15 01:58:43;;;;;;;17.85;12.77;;;;;;;23.84;47.58;100206.59;5043918;28;20040;-64
2022/08/15 02:01:12;;;;;;;14.75;11.65;;;;;;;23.78;47.49;100205.06;5043862;28;20507;-63
2022/08/15 02:03:41;;;;;;;13.00;11.27;;;;;;;23.75;47.03;100198.09;5046899;28;20484;-63
2022/08/15 02:06:12;;;;;;;12.23;10.90;;;;;;;23.76;46.88;100199.81;5045893;28;20555;-65
2022/08/15 02:08:38;;;;;;;14.77;10.25;;;;;;;23.71;46.27;100203.56;5048073;28;20043;-63
2022/08/15 02:11:13;;;;;;;13.18;9.65;;;;;;;23.67;46.13;100202.84;5048262;28;20091;-65
2022/08/15 02:13:41;;;;;;;15.27;9.82;;;;;;;23.63;46.19;100200.38;5045795;28;20029;-64
2022/08/15 02:16:07;;;;;;;11.20;9.57;;;;;;;23.62;45.90;100204.81;5043208;28;20488;-64
2022/08/15 02:18:33;;;;;;;11.32;8.98;;;;;;;23.61;45.73;100201.31;5047507;28;20079;-64
2022/08/15 02:20:58;;;;;;;11.40;9.40;;;;;;;23.57;45.45;100206.81;5031196;28;20036;-64
2022/08/15 02:23:25;;;;;;;12.80;8.70;;;;;;;23.56;45.82;100199.75;5044940;28;20029;-64
2022/08/15 02:25:52;;;;;;;10.40;9.15;;;;;;;23.50;45.06;100203.53;5047873;28;20048;-63
2022/08/15 02:28:19;;;;;;;9.50;8.30;;;;;;;23.50;45.57;100200.88;5042858;28;20114;-64
2022/08/15 02:30:45;;;;;;;10.85;9.32;;;;;;;23.45;45.31;100197.56;5043790;28;20504;-63
2022/08/15 02:33:11;;;;;;;11.07;8.55;;;;;;;23.45;45.72;100197.56;5045866;28;20021;-64
2022/08/15 02:35:38;;;;;;;10.32;8.63;;;;;;;23.43;45.89;100202.94;5044343;28;20047;-64
2022/08/15 02:38:05;;;;;;;11.40;8.57;;;;;;;23.37;45.64;100189.88;5044633;28;20033;-64
2022/08/15 02:40:32;;;;;;;10.45;7.90;;;;;;;23.38;45.86;100194.25;5028924;28;20036;-64
2022/08/15 02:43:03;;;;;;;11.63;9.05;;;;;;;23.35;45.51;100199.72;5046291;28;20037;-64
2022/08/15 02:45:34;;;;;;;12.02;8.20;;;;;;;23.34;45.76;100197.97;5043120;28;20025;-64
2022/08/15 02:48:00;;;;;;;11.90;8.40;;;;;;;23.30;45.84;100204.31;5046732;28;20036;-64
2022/08/15 02:50:25;;;;;;;11.00;8.40;;;;;;;23.30;46.00;100209.66;5047476;28;20080;-64
2022/08/15 02:52:50;;;;;;;12.57;8.70;;;;;;;23.28;46.22;100211.50;5048093;28;20028;-63
2022/08/15 02:55:16;;;;;;;10.85;8.73;;;;;;;23.29;45.85;100220.34;5045243;28;20075;-64
2022/08/15 02:57:41;;;;;;;11.85;8.55;;;;;;;23.26;46.22;100218.69;5026355;28;20032;-64
2022/08/15 03:00:15;;;;;;;12.68;8.32;;;;;;;23.24;45.98;100212.56;5048452;28;20021;-64
2022/08/15 03:02:55;;;;;;;11.45;8.18;;;;;;;23.26;46.14;100210.72;5047285;28;20064;-64
2022/08/15 03:05:23;;;;;;;11.32;8.05;;;;;;;23.24;46.39;100209.91;5029042;28;20024;-64
2022/08/15 03:07:49;;;;;;;11.82;8.70;;;;;;;23.21;45.89;100207.38;5047304;28;20381;-64
2022/08/15 03:10:14;;;;;;;11.57;8.82;;;;;;;23.22;46.09;100204.63;5046580;28;20044;-64
2022/08/15 03:12:57;;;;;;;12.57;9.40;;;;;;;23.16;46.19;100201.34;5036803;28;20103;-64
2022/08/15 03:15:32;;;;;;;10.32;8.77;;;;;;;23.16;46.59;100204.88;5041947;28;20036;-64
2022/08/15 03:17:58;;;;;;;11.13;8.63;;;;;;;23.14;46.79;100213.84;5046782;28;20029;-64
2022/08/15 03:20:23;;;;;;;13.43;9.00;;;;;;;23.13;46.28;100218.31;5025382;28;20127;-63
2022/08/15 03:22:49;;;;;;;11.25;9.35;;;;;;;23.09;46.72;100217.50;5041362;28;20559;-63
2022/08/15 03:25:17;;;;;;;14.05;9.40;;;;;;;23.05;46.92;100215.03;5035020;28;20028;-63
2022/08/15 03:27:44;;;;;;;11.55;8.93;;;;;;;23.03;46.75;100217.75;5042069;28;20653;-64
2022/08/15 03:30:11;;;;;;;10.30;8.68;;;;;;;22.98;46.77;100211.72;5046143;28;20074;-64
2022/08/15 03:32:50;;;;;;;12.95;8.57;;;;;;;22.99;47.18;100209.97;5041504;28;20029;-63
2022/08/15 03:35:16;;;;;;;;;;;;;;;23.08;46.27;100214.91;5046344;28;20033;-63
2022/08/15 03:37:42;;;;;;;11.85;9.45;;;;;;;22.96;46.55;100208.28;5046273;28;19923;-64
2022/08/15 03:40:09;;;;;;;13.43;9.07;;;;;;;22.91;46.54;100215.53;5045248;28;20079;-63
2022/08/15 03:42:34;;;;;;;10.43;8.63;;;;;;;22.87;46.96;100220.13;5045140;28;20092;-63
2022/08/15 03:45:02;;;;;;;10.43;8.85;;;;;;;22.83;46.85;100212.31;5044790;28;20059;-63
2022/08/15 03:47:29;;;;;;;13.97;9.20;;;;;;;22.83;46.87;100204.38;5049347;28;20024;-63
2022/08/15 03:49:54;;;;;;;11.70;9.00;;;;;;;22.82;46.93;100207.94;5050459;28;20017;-63
2022/08/15 03:52:20;;;;;;;14.50;8.88;;;;;;;22.79;47.10;100213.38;5047470;28;20542;-63
2022/08/15 03:54:45;;;;;;;11.73;8.63;;;;;;;22.77;47.29;100213.41;5052878;28;20025;-63
2022/08/15 03:57:12;;;;;;;11.68;8.90;;;;;;;22.72;47.31;100218.91;5050317;28;20505;-63
2022/08/15 03:59:37;;;;;;;11.05;8.38;;;;;;;22.68;47.35;100221.72;5048375;28;20471;-63
2022/08/15 04:02:09;;;;;;;15.20;8.90;;;;;;;22.65;47.61;100227.13;5049559;28;20049;-63
2022/08/15 04:04:35;;;;;;;12.20;9.20;;;;;;;22.61;48.04;100220.19;5048611;28;20270;-63
2022/08/15 04:07:00;;;;;;;10.02;8.93;;;;;;;22.62;47.87;100225.47;5049422;28;20392;-63
2022/08/15 04:09:25;;;;;;;11.15;8.93;;;;;;;22.63;47.96;100226.34;5051721;28;20070;-63
2022/08/15 04:11:51;;;;;;;12.40;9.18;;;;;;;22.57;48.01;100219.47;5050612;28;20029;-63
2022/08/15 04:14:16;;;;;;;15.65;9.52;;;;;;;22.52;48.62;100221.41;5050356;28;20028;-63
2022/08/15 04:16:41;;;;;;;13.55;8.90;;;;;;;22.49;48.68;100216.22;5046320;28;20021;-63
2022/08/15 04:19:07;;;;;;;13.55;9.00;;;;;;;22.51;49.01;100225.00;5045603;28;20084;-63
2022/08/15 04:21:32;;;;;;;12.52;9.00;;;;;;;22.46;49.31;100224.28;5041599;28;20025;-63
2022/08/15 04:23:58;;;;;;;11.98;9.15;;;;;;;22.45;49.58;100225.19;5033087;28;20079;-63
2022/08/15 04:26:24;;;;;;;12.15;9.30;;;;;;;22.43;49.40;100224.41;5047879;28;20024;-63
2022/08/15 04:28:50;;;;;;;11.68;8.60;;;;;;;22.39;49.68;100226.28;5047789;28;20071;-63
2022/08/15 04:31:20;;;;;;;13.82;9.00;;;;;;;22.38;49.83;100222.78;5047111;28;20060;-63
2022/08/15 04:33:47;;;;;;;15.15;9.00;;;;;;;22.37;49.82;100229.00;5046826;28;20112;-63
2022/08/15 04:36:15;;;;;;;11.88;8.63;;;;;;;22.32;50.41;100236.28;5051341;28;20029;-63
2022/08/15 04:38:42;;;;;;;11.77;8.77;;;;;;;22.33;50.72;100226.50;5048905;28;20021;-63
2022/08/15 04:41:09;;;;;;;9.40;7.97;;;;;;;22.35;50.78;100230.00;5047822;28;20048;-63
2022/08/15 04:43:36;;;;;;;12.43;8.73;;;;;;;22.35;50.67;100230.84;5045892;28;20200;-63
2022/08/15 04:46:05;;;;;;;11.85;8.75;;;;;;;22.32;51.34;100225.66;5046584;28;20037;-63
2022/08/15 04:48:31;;;;;;;11.88;8.02;;;;;;;22.33;51.42;100226.50;5045222;28;20036;-63
2022/08/15 04:50:58;;;;;;;11.25;8.18;;;;;;;22.33;51.37;100231.81;5032432;28;20029;-63
2022/08/15 04:53:27;;;;;;;11.60;8.77;;;;;;;22.32;51.54;100230.03;5048881;28;20083;-63
2022/08/15 04:55:54;;;;;;;11.30;8.50;;;;;;;22.28;52.21;100229.28;5051655;28;20029;-63
2022/08/15 04:58:19;;;;;;;12.82;8.63;;;;;;;22.28;52.37;100234.59;5049046;28;20553;-63
2022/08/15 05:00:54;;;;;;;12.07;8.38;;;;;;;22.28;52.04;100231.94;5046904;28;20021;-63
2022/08/15 05:03:20;;;;;;;12.68;8.23;;;;;;;22.27;52.82;100243.47;5046863;28;20025;-64
2022/08/15 05:05:52;;;;;;;11.13;8.00;;;;;;;22.23;53.36;100250.69;5045202;28;20074;-63
2022/08/15 05:08:19;;;;;;;10.50;8.13;;;;;;;22.23;53.30;100253.34;5047153;28;20059;-63
2022/08/15 05:10:51;;;;;;;13.45;8.10;;;;;;;22.26;53.52;100251.50;5042266;28;20561;-63
2022/08/15 05:13:20;;;;;;;12.18;8.00;;;;;;;22.24;53.30;100248.91;5046757;28;20037;-63
2022/08/15 05:15:47;;;;;;;10.55;7.50;;;;;;;22.27;54.10;100247.94;5041879;28;20746;-63
2022/08/15 05:18:13;;;;;;;11.98;8.40;;;;;;;22.25;53.83;100253.28;5050274;28;20078;-63
2022/08/15 05:20:42;;;;;;;11.48;7.70;;;;;;;22.26;54.20;100238.22;5047486;28;20037;-63
2022/08/15 05:23:09;;;;;;;;;;;;;;;22.32;52.99;100249.53;5046808;28;20032;-63
2022/08/15 05:25:38;;;;;;;11.63;7.78;;;;;;;22.29;54.09;100252.28;5045828;28;19924;-63
2022/08/15 05:28:05;;;;;;;10.73;8.15;;;;;;;22.29;54.98;100257.56;5028847;28;20044;-63
2022/08/15 05:30:31;;;;;;;10.40;8.02;;;;;;;22.29;54.40;100244.31;5046249;28;20021;-63
2022/08/15 05:33:11;;;;;;;13.77;7.93;;;;;;;22.32;54.28;100264.53;5047994;28;20035;-63
2022/08/15 05:35:41;;;;;;;12.52;8.27;;;;;;;22.28;55.74;100266.44;5046533;28;20029;-63
2022/08/15 05:38:11;;;;;;;19.40;8.30;;;;;;;22.28;55.35;100269.09;5049532;28;20063;-63
2022/08/15 05:40:56;;;;;;;14.55;7.93;;;;;;;22.27;54.84;100270.00;5044392;28;20461;-63
2022/08/15 05:43:39;;;;;;;12.05;7.60;;;;;;;22.28;54.79;100266.44;5044250;28;20056;-63
2022/08/15 05:46:18;;;;;;;14.18;8.05;;;;;;;22.25;55.60;100263.91;5038926;28;20477;-63
2022/08/15 05:48:49;;;;;;;13.38;7.88;;;;;;;22.26;55.73;100259.44;5041984;28;20562;-63
2022/08/15 05:51:34;;;;;;;14.35;8.10;;;;;;;22.25;55.48;100266.56;5030083;28;20035;-63
2022/08/15 05:54:19;;;;;;;10.85;8.18;;;;;;;22.26;55.89;100276.28;5045471;28;20443;-64
2022/08/15 05:56:57;;;;;;;10.55;8.38;;;;;;;22.27;56.24;100274.47;5023835;28;20558;-64
2022/08/15 05:59:51;;;;;;;14.02;7.80;;;;;;;22.26;56.52;100273.63;5048614;28;20083;-63
2022/08/15 06:02:36;;;;;;;12.63;8.30;;;;;;;22.29;56.06;100276.16;5043345;28;20106;-64
2022/08/15 06:05:16;;;;;;;14.15;8.18;;;;;;;22.28;56.62;100279.72;5044787;28;20029;-64
2022/08/15 06:07:46;;;;;;;11.93;7.90;;;;;;;22.28;57.21;100274.41;5046876;28;20096;-63
2022/08/15 06:10:36;;;;;;;11.00;7.72;;;;;;;22.34;55.93;100284.00;5045652;28;20021;-63
2022/08/15 06:13:18;;;;;;;12.35;7.93;;;;;;;22.32;57.29;100289.34;5039642;28;20029;-64
2022/08/15 06:15:51;;;;;;;15.63;8.20;;;;;;;22.32;56.80;100289.34;5039852;28;20405;-64
2022/08/15 06:18:19;;;;;;;13.10;7.50;;;;;;;22.34;57.04;100290.16;5042037;28;20032;-64
2022/08/15 06:20:58;;;;;;;10.27;7.55;;;;;;;22.36;57.00;100284.78;5035950;28;20032;-64
2022/08/15 06:23:46;;;;;;;11.13;7.25;;;;;;;22.37;57.02;100287.38;5045846;28;20408;-64
2022/08/15 06:26:29;;;;;;;15.02;8.13;;;;;;;22.42;56.83;100286.38;5043371;28;20576;-64
2022/08/15 06:29:20;;;;;;;15.13;8.10;;;;;;;22.37;56.86;100276.78;5043343;28;20029;-63
2022/08/15 06:32:01;;;;;;;16.48;8.30;;;;;;;22.38;57.38;100285.63;5047666;28;20110;-63
2022/08/15 06:34:42;;;;;;;15.00;9.23;;;;;;;22.37;57.79;100278.56;5047014;28;20040;-64
2022/08/15 06:37:23;;;;;;;12.88;8.63;;;;;;;22.35;58.04;100281.28;5043837;28;20483;-64
2022/08/15 06:40:04;;;;;;;14.88;8.13;;;;;;;22.35;57.98;100283.94;5042054;28;20033;-64
2022/08/15 06:42:36;;;;;;;10.93;7.97;;;;;;;22.36;58.68;100279.47;5045543;28;20456;-64
2022/08/15 06:45:20;;;;;;;16.38;8.50;;;;;;;22.38;58.52;100277.66;5045282;28;20424;-63
2022/08/15 06:47:47;;;;;;;12.68;8.48;;;;;;;22.38;58.82;100281.16;5044947;28;20091;-63
2022/08/15 06:50:20;;;;;;;12.07;8.23;;;;;;;22.38;59.54;100289.13;5028093;28;20021;-63
2022/08/15 06:52:58;;;;;;;13.13;8.30;;;;;;;;;;5048502;28;20477;-64
2022/08/15 06:55:29;;;;;;;13.57;8.40;;;;;;;22.41;59.26;100293.47;5042534;28;20056;-64
2022/08/15 06:58:05;;;;;;;13.00;8.55;;;;;;;22.40;59.13;100292.63;5046844;28;20025;-64
2022/08/15 07:00:47;;;;;;;12.38;8.50;;;;;;;22.44;58.67;100297.81;5041080;28;20037;-64
2022/08/15 07:03:47;;;;;;;15.93;8.50;;;;;;;22.44;59.14;100297.81;5039247;28;20792;-64
2022/08/15 07:06:18;;;;;;;12.32;8.57;;;;;;;22.40;60.58;100289.97;5016517;28;20677;-64
2022/08/15 07:09:01;;;;;;;14.20;8.93;;;;;;;22.38;60.88;100283.81;5039481;28;20135;-64
2022/08/15 07:11:34;;;;;;;18.42;8.70;;;;;;;22.38;60.30;100278.50;5043055;28;20029;-64
2022/08/15 07:14:19;;;;;;;15.68;10.48;;;;;;;22.37;60.33;100279.44;5043664;28;20031;-64
2022/08/15 07:16:54;;;;;;;13.60;9.52;;;;;;;22.39;60.99;100280.25;5039097;28;20298;-64
2022/08/15 07:19:19;;;;;;;13.73;9.63;;;;;;;22.42;61.15;100287.25;5045763;28;20369;-64
2022/08/15 07:21:45;;;;;;;16.23;9.60;;;;;;;22.46;60.80;100286.19;5042985;28;20074;-64
2022/08/15 07:24:16;;;;;;;16.10;10.48;;;;;;;22.49;60.90;100285.22;5048917;28;20431;-64
2022/08/15 07:26:44;;;;;;;15.85;10.90;;;;;;;22.46;60.72;100285.34;5044959;28;20041;-64
2022/08/15 07:29:25;;;;;;;13.27;9.55;;;;;;;22.51;60.41;100288.72;5044710;28;20029;-63
2022/08/15 07:31:58;;;;;;;16.65;11.55;;;;;;;22.52;60.82;100282.47;5045619;28;20028;-63
2022/08/15 07:34:24;;;;;;;17.05;10.70;;;;;;;22.53;60.84;100281.56;5048957;28;20091;-64
2022/08/15 07:36:59;;;;;;;16.55;11.07;;;;;;;22.54;61.53;100283.31;5052220;28;20036;-64
2022/08/15 07:39:37;;;;;;;13.88;10.18;;;;;;;22.56;61.99;100279.69;5040586;28;20552;-63
2022/08/15 07:42:15;;;;;;;15.93;11.27;;;;;;;22.62;60.75;100280.38;5043654;28;20053;-63
2022/08/15 07:44:51;;;;;;;16.75;11.02;;;;;;;22.64;60.66;100273.19;5047846;28;20063;-63
2022/08/15 07:47:32;;;;;;;16.65;11.20;;;;;;;22.66;61.48;100282.84;5047862;28;20480;-64
2022/08/15 07:50:22;;;;;;;17.77;11.68;;;;;;;22.71;60.89;100285.34;5042125;28;20061;-63
2022/08/15 07:52:56;;;;;;;21.95;12.93;;;;;;;22.74;60.25;100285.25;5043570;28;20021;-63
2022/08/15 07:55:23;;;;;;;19.10;13.35;;;;;;;22.76;60.86;100280.75;5043335;28;20047;-63
2022/08/15 07:58:18;;;;;;;21.50;14.13;;;;;;;22.82;60.41;100287.63;5049248;28;20028;-63
2022/08/15 08:00:52;;;;;;;21.83;13.52;;;;;;;22.83;59.96;100290.22;5042437;28;20058;-63
2022/08/15 08:03:29;;;;;;;22.95;14.10;;;;;;;22.88;59.68;100287.38;5046932;28;20502;-63
2022/08/15 08:06:05;;;;;;;25.00;15.27;;;;;;;22.92;61.06;100291.69;5045494;28;20041;-63
2022/08/15 08:09:06;;;;;;;22.48;15.05;;;;;;;22.96;59.97;100289.78;5038550;28;20478;-63
2022/08/15 08:11:38;;;;;;;22.20;14.63;;;;;;;22.98;60.67;100296.75;5042474;28;20021;-63
2022/08/15 08:14:03;;;;;;;24.17;13.70;;;;;;;23.02;59.21;100295.72;5050404;28;20027;-60
2022/08/15 08:16:44;;;;;;;25.13;14.87;;;;;;;23.08;60.67;100300.81;5047320;28;20037;-63
2022/08/15 08:19:26;;;;;;;19.67;13.95;;;;;;;23.13;60.14;100299.81;5041350;28;20291;-63
2022/08/15 08:21:57;;;;;;;22.52;14.45;;;;;;;23.15;59.55;100300.63;5040978;28;20029;-64
2022/08/15 08:24:26;;;;;;;23.58;15.02;;;;;;;23.18;60.67;100312.00;5021167;28;20040;-64
2022/08/15 08:27:07;;;;;;;26.60;14.38;;;;;;;23.20;59.32;100304.84;5045314;28;20033;-63
2022/08/15 08:29:46;;;;;;;23.35;15.23;;;;;;;23.22;60.03;100299.47;5044492;28;20021;-64
2022/08/15 08:32:37;;;;;;;21.67;14.85;;;;;;;23.25;59.41;100302.88;5045216;28;20025;-63
2022/08/15 08:35:26;;;;;;;23.50;14.27;;;;;;;23.29;59.22;100306.28;5044000;28;20064;-64
2022/08/15 08:37:51;;;;;;;;;;;;;;;23.35;58.67;100298.06;5029381;28;20423;-63
2022/08/15 08:43:57;;;;;;;25.52;14.25;;;;;;;23.37;59.40;100296.22;5041845;28;20083;-64
2022/08/15 08:46:34;;;;;;;23.30;14.20;;;;;;;23.39;59.25;100305.00;5045631;28;20021;-63
2022/08/15 08:49:32;;;;;;;25.98;15.00;;;;;;;23.38;59.71;100305.06;5043406;28;20459;-63
2022/08/15 08:52:06;;;;;;;29.33;15.13;;;;;;;23.40;59.39;100305.88;5046438;28;20483;-63
2022/08/15 08:54:57;;;;;;;26.45;14.73;;;;;;;23.38;60.15;100308.59;5046489;28;20104;-63
2022/08/15 08:57:28;;;;;;;25.80;14.68;;;;;;;23.36;60.46;100297.16;5039261;28;20023;-64
2022/08/15 09:00:17;;;;;;;29.23;15.23;;;;;;;23.38;60.30;100308.59;5039759;28;20029;-63
2022/08/15 09:02:53;;;;;;;26.30;14.45;;;;;;;23.37;60.17;100306.84;5045173;28;20044;-63
2022/08/15 09:05:26;;;;;;;26.50;15.25;;;;;;;23.39;59.70;100312.09;5044848;28;20120;-64
2022/08/15 09:07:58;;;;;;;25.52;14.80;;;;;;;23.40;59.95;100305.88;5041359;28;20029;-63
2022/08/15 09:10:32;;;;;;;28.33;15.35;;;;;;;23.42;60.39;100309.34;5047693;28;20045;-64
2022/08/15 09:15:47;;;;;;;28.33;15.73;;;;;;;23.47;60.49;100322.47;5035350;28;20400;-64
2022/08/15 09:18:19;;;;;;;37.97;17.13;;;;;;;23.44;60.32;100324.28;5043480;28;20078;-64
2022/08/15 09:20:46;;;;;;;30.63;16.23;;;;;;;23.46;60.53;100320.72;5043436;28;20024;-65
2022/08/15 09:23:13;;;;;;;29.98;16.35;;;;;;;23.46;60.70;100316.25;5048671;28;20448;-65
2022/08/15 09:25:49;;;;;;;28.90;17.20;;;;;;;23.44;60.48;100324.28;5040155;28;20033;-65
2022/08/15 09:28:37;;;;;;;27.45;16.15;;;;;;;23.46;60.74;100318.91;5035033;28;20178;-65
2022/08/15 09:31:09;;;;;;;31.33;17.13;;;;;;;23.43;61.45;100316.38;5044461;28;20023;-65
2022/08/15 09:33:49;;;;;;;26.15;16.77;;;;;;;23.49;61.90;100320.59;5040144;28;20056;-66
2022/08/15 09:36:33;;;;;;;33.40;17.30;;;;;;;23.50;61.95;100317.88;5039190;28;20137;-65
2022/08/15 09:39:27;;;;;;;30.95;17.35;;;;;;;23.54;61.11;100318.66;5023482;28;20041;-66
2022/08/15 09:42:23;;;;;;;31.75;18.40;;;;;;;23.56;61.33;100325.63;5041163;28;20416;-65
2022/08/15 09:44:57;;;;;;;33.10;18.30;;;;;;;23.55;60.86;100321.25;5039369;28;20527;-67
2022/08/15 09:47:22;;;;;;;31.83;17.77;;;;;;;23.57;60.88;100323.84;5040780;28;20064;-64
2022/08/15 09:50:06;;;;;;;32.30;18.20;;;;;;;23.59;61.07;100322.88;5036554;28;20059;-67
2022/08/15 09:52:57;;;;;;;37.20;18.85;;;;;;;23.62;60.82;100316.53;5037210;28;20390;-65
2022/08/15 09:55:44;;;;;;;31.63;17.85;;;;;;;23.67;60.81;100324.34;5037658;28;20488;-65
2022/08/15 09:58:29;;;;;;;33.28;19.13;;;;;;;23.72;60.85;100317.94;5036322;28;20033;-66
2022/08/15 10:01:24;;;;;;;32.67;18.25;;;;;;;23.80;61.00;100325.59;5035886;28;20025;-66
2022/08/15 10:03:58;;;;;;;32.55;18.23;;;;;;;23.85;60.96;100334.25;5038682;28;20107;-61
2022/08/15 10:06:28;;;;;;;33.63;18.60;;;;;;;23.88;61.17;100325.31;5041899;28;20025;-66
2022/08/15 10:08:53;;;;;;;35.20;19.75;;;;;;;23.92;60.78;100325.13;5039737;28;20025;-67
2022/08/15 10:11:46;;;;;;;32.83;18.30;;;;;;;23.99;60.46;100314.25;5036545;28;20039;-67
2022/08/15 10:14:25;;;;;;;31.15;18.85;;;;;;;24.05;60.86;100320.16;5021708;28;20040;-65
2022/08/15 10:16:52;;;;;;;33.03;19.92;;;;;;;24.08;60.51;100312.06;5039394;28;20056;-66
2022/08/15 10:19:38;;;;;;;34.08;18.67;;;;;;;24.10;60.10;100323.53;5036986;28;20021;-65
2022/08/15 10:22:22;;;;;;;36.38;19.60;;;;;;;24.10;59.51;100319.97;5044183;28;20056;-65
2022/08/15 10:25:36;;;;;;;36.95;19.90;;;;;;;24.12;59.49;100328.78;5044791;28;20121;-64
2022/08/15 10:28:19;;;;;;;36.33;19.27;;;;;;;24.12;59.67;100332.28;4940066;28;20031;-63
2022/08/15 10:31:05;;;;;;;35.97;18.92;;;;;;;24.17;59.71;100323.25;4945799;29;20494;-64
2022/08/15 10:33:30;;;;;;;35.17;18.42;;;;;;;24.20;59.81;100325.78;4990893;28;20124;-64
2022/08/15 10:36:25;;;;;;;34.07;18.53;;;;;;;24.22;59.14;100326.59;5036394;28;20466;-64
2022/08/15 10:39:02;;;;;;;31.55;18.27;;;;;;;24.23;59.47;100333.66;5028601;28;20037;-64
2022/08/15 10:41:48;;;;;;;37.75;19.50;;;;;;;24.24;59.59;100328.25;5034018;28;20045;-63
2022/08/15 10:44:47;;;;;;;34.53;18.83;;;;;;;24.27;58.73;100330.81;5035562;28;20051;-64
2022/08/15 10:47:28;;;;;;;36.65;20.13;;;;;;;24.31;59.40;100336.88;5040059;28;20036;-64
2022/08/15 10:50:08;;;;;;;32.33;18.60;;;;;;;24.34;59.15;100333.22;5036338;28;20433;-64
2022/08/15 10:52:40;;;;;;;37.75;19.92;;;;;;;24.32;58.99;100333.28;5042399;28;20055;-64
2022/08/15 10:55:29;;;;;;;34.10;18.35;;;;;;;24.32;59.02;100335.94;5041008;28;20025;-64
2022/08/15 10:57:59;;;;;;;35.25;19.30;;;;;;;24.35;59.06;100341.13;5043690;28;20025;-63
2022/08/15 11:00:37;;;;;;;33.22;19.02;;;;;;;24.36;59.03;100340.22;5043169;28;20040;-63
2022/08/15 11:03:07;;;;;;;35.45;18.92;;;;;;;24.37;59.29;100339.25;5042505;28;20029;-63
2022/08/15 11:05:33;;;;;;;35.50;19.02;;;;;;;24.37;59.04;100336.59;5033572;28;20033;-63
2022/08/15 11:07:58;;;;;;;38.50;19.67;;;;;;;24.36;58.30;100337.56;5046093;28;20043;-63
2022/08/15 11:10:30;;;;;;;37.50;19.92;;;;;;;24.35;58.37;100337.63;5034532;28;20485;-63
2022/08/15 11:13:05;;;;;;;31.95;18.55;;;;;;;24.34;58.74;100335.88;5045808;28;20036;-63
2022/08/15 11:15:56;;;;;;;33.97;20.05;;;;;;;24.31;58.83;100340.38;5046846;28;20622;-63
2022/08/15 11:18:27;;;;;;;33.92;17.55;;;;;;;24.32;58.02;100335.94;5048153;28;20749;-63
2022/08/15 11:21:01;;;;;;;34.88;18.05;;;;;;;24.30;57.85;100340.44;5035957;28;20090;-60
2022/08/15 11:23:35;;;;;;;31.52;18.25;;;;;;;24.29;57.89;100338.75;5047670;28;20480;-60
2022/08/15 11:26:01;;;;;;;31.40;18.17;;;;;;;24.28;58.28;100332.53;5049220;28;20395;-61
2022/08/15 11:28:29;;;;;;;35.17;18.13;;;;;;;24.30;58.45;100335.13;5041207;28;20481;-61
2022/08/15 11:31:07;;;;;;;31.63;18.10;;;;;;;24.31;58.74;100337.72;5048872;28;20499;-61
2022/08/15 11:33:44;;;;;;;34.03;18.38;;;;;;;24.32;58.48;100338.59;5047987;28;20408;-61
2022/08/15 11:36:25;;;;;;;35.45;18.95;;;;;;;24.36;58.22;100339.31;5039900;28;20077;-61
2022/08/15 11:38:59;;;;;;;31.90;18.83;;;;;;;24.34;57.95;100342.06;5047891;28;20033;-61
2022/08/15 11:41:29;;;;;;;33.92;18.20;;;;;;;24.35;58.28;100338.47;5049558;28;20045;-61
2022/08/15 11:43:58;;;;;;;35.20;18.52;;;;;;;24.37;58.58;100341.06;5047428;28;20056;-61
2022/08/15 11:46:26;;;;;;;35.40;18.88;;;;;;;24.41;58.33;100343.53;5048140;28;20060;-61
2022/08/15 11:49:19;;;;;;;34.28;18.48;;;;;;;24.44;57.88;100340.75;5031871;28;20104;-61
2022/08/15 11:51:46;;;;;;;39.80;18.77;;;;;;;24.48;58.33;100345.00;5046645;28;20439;-61